Blinkbonny, United Kingdom

3:47 PM GMT on February 20, 2017 (GMT +0000)
Mid Kinleith | | Change Station

Elev 725 ft 55.89 °N, 3.30 °W | Updated 3 hours ago

Mostly Cloudy
Mostly Cloudy
51.8 °F
Feels Like 51.8 °F
N
20.6
Wind Variable Wind from WNW
Gusts 36.5 mph

Today
High -- | Low -- °F
--% Chance of Precip.
Yesterday
High -- | Low -- °F
Precip. -- in
Pressure 29.80 in
Visibility 6.2 miles
Clouds Scattered Clouds 2800 ft
Dew Point 43 °F
Humidity 73%
Rainfall 0.00 in
Snow Depth Not available.
7:26 AM 5:28 PM
Waning Crescent, 33% visible
METAR EGPH 201520Z 26014KT 9999 SCT028 11/05 Q1009
Pressure 29.80 in
Visibility 6.2 miles
Clouds Scattered Clouds 2800 ft
Dew Point 43 °F
Humidity 73%
Rainfall 0.00 in
Snow Depth Not available.
7:26 AM 5:28 PM
Waning Crescent, 33% visible
METAR EGPH 201520Z 26014KT 9999 SCT028 11/05 Q1009

Get Your Daily Forecast Email!

Thanks for signing up!

Be on the lookout for a verification email in your inbox.

You'll start receiving the daily forecast at 8 AM.

×

10-Day Weather Forecast

×

Almanac

Astronomy

Feb. 20, 2017 Rise Set
Actual Time
Civil Twilight
Nautical Twilight
Astronomical Twilight
Moon
Length of Visible Light
Length of Day
Tomorrow will be .
, % of the Moon is Illuminated

Today's Extremes

Country Highs Country Lows

Community

WunderPhotos

Upload Photos

1,962,540 photos uploaded!

WunderBlog® & News

Nearby

Air Quality

  Air Quality AQ Index Pollutant
Not available.

Snow Depth

Station Depth Elevation

Earthquake Activity

City Distance Mag. Time & Date
Minimum magnitude displayed is 2.5.

Coastal Water Temperatures

Place Temperature

Stations

Nearby Weather Stations

Station Location Temp. Windchill Dew Point Humidity Wind Precip. Elev Updated Type